<?xml version="1.0" encoding="UTF-8" standalone="no" ?>
<gpx xmlns="http://www.topografix.com/GPX/1/1" xmlns:xsi="http://www.w3.org/2001/XMLSchema-instance" xsi:schemaLocation="http://www.topografix.com/GPX/1/1 http://www.topografix.com/GPX/1/1/gpx.xsd" version="1.1" creator="VisuGPX - https://www.visugpx.com">
  <metadata>
    <name>VTT 7 laux </name>
    <desc><![CDATA[monter par les GR , descente par le chemin FTT. trop bon!!!]]></desc>
  </metadata>
  <trk>
    <name><![CDATA[VTT 7 LAUX]]></name>
    <trkseg>
      <trkpt lat="45.28613" lon="5.93833">
        <ele>248</ele>
        <time>2011-05-07T06:49:41Z</time>
      </trkpt>
      <trkpt lat="45.28638" lon="5.93782">
        <ele>249</ele>
        <time>2011-05-07T07:22:21.0030Z</time>
      </trkpt>
      <trkpt lat="45.2867" lon="5.93733">
        <ele>246</ele>
        <time>2011-05-07T07:22:30.0040Z</time>
      </trkpt>
      <trkpt lat="45.28708" lon="5.9377">
        <ele>245</ele>
        <time>2011-05-07T07:22:40.0050Z</time>
      </trkpt>
      <trkpt lat="45.28747" lon="5.93807">
        <ele>244</ele>
        <time>2011-05-07T07:22:48.0040Z</time>
      </trkpt>
      <trkpt lat="45.28785" lon="5.93843">
        <ele>243</ele>
        <time>2011-05-07T07:22:56.0050Z</time>
      </trkpt>
      <trkpt lat="45.28823" lon="5.93878">
        <ele>243</ele>
        <time>2011-05-07T07:23:05.0040Z</time>
      </trkpt>
      <trkpt lat="45.28862" lon="5.93917">
        <ele>242</ele>
        <time>2011-05-07T07:23:14.0020Z</time>
      </trkpt>
      <trkpt lat="45.289" lon="5.93953">
        <ele>242</ele>
        <time>2011-05-07T07:23:23.0040Z</time>
      </trkpt>
      <trkpt lat="45.28938" lon="5.9399">
        <ele>243</ele>
        <time>2011-05-07T07:23:32.0040Z</time>
      </trkpt>
      <trkpt lat="45.28977" lon="5.94028">
        <ele>243</ele>
        <time>2011-05-07T07:23:41.0040Z</time>
      </trkpt>
      <trkpt lat="45.29015" lon="5.94065">
        <ele>243</ele>
        <time>2011-05-07T07:23:50.0030Z</time>
      </trkpt>
      <trkpt lat="45.29053" lon="5.94103">
        <ele>242</ele>
        <time>2011-05-07T07:23:58.0040Z</time>
      </trkpt>
      <trkpt lat="45.2909" lon="5.94138">
        <ele>242</ele>
        <time>2011-05-07T07:24:06.0030Z</time>
      </trkpt>
      <trkpt lat="45.2913" lon="5.94177">
        <ele>241</ele>
        <time>2011-05-07T07:24:14.0040Z</time>
      </trkpt>
      <trkpt lat="45.29167" lon="5.94213">
        <ele>241</ele>
        <time>2011-05-07T07:24:22.0040Z</time>
      </trkpt>
      <trkpt lat="45.29208" lon="5.94252">
        <ele>242</ele>
        <time>2011-05-07T07:24:31.0040Z</time>
      </trkpt>
      <trkpt lat="45.29248" lon="5.94292">
        <ele>241</ele>
        <time>2011-05-07T07:24:40.0030Z</time>
      </trkpt>
      <trkpt lat="45.29288" lon="5.9433">
        <ele>242</ele>
        <time>2011-05-07T07:24:49.0030Z</time>
      </trkpt>
      <trkpt lat="45.29328" lon="5.94367">
        <ele>242</ele>
        <time>2011-05-07T07:24:58.0050Z</time>
      </trkpt>
      <trkpt lat="45.29367" lon="5.94405">
        <ele>243</ele>
        <time>2011-05-07T07:25:07.0030Z</time>
      </trkpt>
      <trkpt lat="45.29403" lon="5.9444">
        <ele>244</ele>
        <time>2011-05-07T07:25:16.0040Z</time>
      </trkpt>
      <trkpt lat="45.29442" lon="5.94477">
        <ele>245</ele>
        <time>2011-05-07T07:25:25.0040Z</time>
      </trkpt>
      <trkpt lat="45.2948" lon="5.94518">
        <ele>246</ele>
        <time>2011-05-07T07:25:35.0030Z</time>
      </trkpt>
      <trkpt lat="45.29497" lon="5.94578">
        <ele>248</ele>
        <time>2011-05-07T07:25:50.0040Z</time>
      </trkpt>
      <trkpt lat="45.29473" lon="5.94638">
        <ele>250</ele>
        <time>2011-05-07T07:26:04.0040Z</time>
      </trkpt>
      <trkpt lat="45.29453" lon="5.94697">
        <ele>250</ele>
        <time>2011-05-07T07:26:17.0040Z</time>
      </trkpt>
      <trkpt lat="45.29432" lon="5.94755">
        <ele>257</ele>
        <time>2011-05-07T07:26:32.0030Z</time>
      </trkpt>
      <trkpt lat="45.2941" lon="5.94815">
        <ele>260</ele>
        <time>2011-05-07T07:26:49.0040Z</time>
      </trkpt>
      <trkpt lat="45.29367" lon="5.94835">
        <ele>261</ele>
        <time>2011-05-07T07:27:13.0040Z</time>
      </trkpt>
      <trkpt lat="45.29337" lon="5.94787">
        <ele>264</ele>
        <time>2011-05-07T07:27:29.0040Z</time>
      </trkpt>
      <trkpt lat="45.29292" lon="5.94767">
        <ele>269</ele>
        <time>2011-05-07T07:27:48.0040Z</time>
      </trkpt>
      <trkpt lat="45.29258" lon="5.94722">
        <ele>274</ele>
        <time>2011-05-07T07:28:06.0040Z</time>
      </trkpt>
      <trkpt lat="45.29212" lon="5.94718">
        <ele>277</ele>
        <time>2011-05-07T07:28:24.0030Z</time>
      </trkpt>
      <trkpt lat="45.29167" lon="5.94738">
        <ele>277</ele>
        <time>2011-05-07T07:28:35.0040Z</time>
      </trkpt>
      <trkpt lat="45.29122" lon="5.94728">
        <ele>281</ele>
        <time>2011-05-07T07:28:52.0030Z</time>
      </trkpt>
      <trkpt lat="45.2908" lon="5.94707">
        <ele>285</ele>
        <time>2011-05-07T07:29:09.0040Z</time>
      </trkpt>
      <trkpt lat="45.29037" lon="5.94677">
        <ele>289</ele>
        <time>2011-05-07T07:29:28.0040Z</time>
      </trkpt>
      <trkpt lat="45.28992" lon="5.94672">
        <ele>295</ele>
        <time>2011-05-07T07:29:49.0040Z</time>
      </trkpt>
      <trkpt lat="45.28948" lon="5.94648">
        <ele>298</ele>
        <time>2011-05-07T07:30:07.0050Z</time>
      </trkpt>
      <trkpt lat="45.28905" lon="5.94625">
        <ele>303</ele>
        <time>2011-05-07T07:30:27.0040Z</time>
      </trkpt>
      <trkpt lat="45.28865" lon="5.94597">
        <ele>312</ele>
        <time>2011-05-07T07:30:52.0040Z</time>
      </trkpt>
      <trkpt lat="45.28823" lon="5.94567">
        <ele>316</ele>
        <time>2011-05-07T07:31:13.0040Z</time>
      </trkpt>
      <trkpt lat="45.28782" lon="5.9454">
        <ele>318</ele>
        <time>2011-05-07T07:31:32.0040Z</time>
      </trkpt>
      <trkpt lat="45.2874" lon="5.94518">
        <ele>320</ele>
        <time>2011-05-07T07:31:51.0040Z</time>
      </trkpt>
      <trkpt lat="45.28698" lon="5.9449">
        <ele>326</ele>
        <time>2011-05-07T07:32:12.0040Z</time>
      </trkpt>
      <trkpt lat="45.28655" lon="5.94465">
        <ele>332</ele>
        <time>2011-05-07T07:32:35.0040Z</time>
      </trkpt>
      <trkpt lat="45.2861" lon="5.94457">
        <ele>333</ele>
        <time>2011-05-07T07:32:51.0050Z</time>
      </trkpt>
      <trkpt lat="45.28578" lon="5.9441">
        <ele>337</ele>
        <time>2011-05-07T07:33:09.0050Z</time>
      </trkpt>
      <trkpt lat="45.2855" lon="5.94358">
        <ele>338</ele>
        <time>2011-05-07T07:33:25.0050Z</time>
      </trkpt>
      <trkpt lat="45.28512" lon="5.9432">
        <ele>338</ele>
        <time>2011-05-07T07:33:38.0040Z</time>
      </trkpt>
      <trkpt lat="45.28467" lon="5.94325">
        <ele>340</ele>
        <time>2011-05-07T07:33:50.0040Z</time>
      </trkpt>
      <trkpt lat="45.28422" lon="5.94303">
        <ele>349</ele>
        <time>2011-05-07T07:34:15.0050Z</time>
      </trkpt>
      <trkpt lat="45.28378" lon="5.94277">
        <ele>355</ele>
        <time>2011-05-07T07:34:39.0040Z</time>
      </trkpt>
      <trkpt lat="45.28333" lon="5.94265">
        <ele>361</ele>
        <time>2011-05-07T07:35:03.0040Z</time>
      </trkpt>
      <trkpt lat="45.28297" lon="5.94223">
        <ele>356</ele>
        <time>2011-05-07T07:35:17.0050Z</time>
      </trkpt>
      <trkpt lat="45.28257" lon="5.94188">
        <ele>353</ele>
        <time>2011-05-07T07:35:30.0050Z</time>
      </trkpt>
      <trkpt lat="45.2822" lon="5.94143">
        <ele>352</ele>
        <time>2011-05-07T07:35:45.0040Z</time>
      </trkpt>
      <trkpt lat="45.28183" lon="5.941">
        <ele>349</ele>
        <time>2011-05-07T07:35:55.0050Z</time>
      </trkpt>
      <trkpt lat="45.28175" lon="5.94037">
        <ele>350</ele>
        <time>2011-05-07T07:36:04.0050Z</time>
      </trkpt>
      <trkpt lat="45.28168" lon="5.93972">
        <ele>352</ele>
        <time>2011-05-07T07:36:16.0050Z</time>
      </trkpt>
      <trkpt lat="45.28193" lon="5.93918">
        <ele>354</ele>
        <time>2011-05-07T07:36:30.0050Z</time>
      </trkpt>
      <trkpt lat="45.28153" lon="5.93883">
        <ele>357</ele>
        <time>2011-05-07T07:36:45.0050Z</time>
      </trkpt>
      <trkpt lat="45.2811" lon="5.9386">
        <ele>360</ele>
        <time>2011-05-07T07:37:00.0060Z</time>
      </trkpt>
      <trkpt lat="45.28063" lon="5.93843">
        <ele>364</ele>
        <time>2011-05-07T07:37:17.0050Z</time>
      </trkpt>
      <trkpt lat="45.28022" lon="5.9387">
        <ele>369</ele>
        <time>2011-05-07T07:37:36.0050Z</time>
      </trkpt>
      <trkpt lat="45.28017" lon="5.93937">
        <ele>373</ele>
        <time>2011-05-07T07:37:55.0050Z</time>
      </trkpt>
      <trkpt lat="45.28043" lon="5.93993">
        <ele>380</ele>
        <time>2011-05-07T07:38:12.0060Z</time>
      </trkpt>
      <trkpt lat="45.28068" lon="5.94048">
        <ele>383</ele>
        <time>2011-05-07T07:38:28.0050Z</time>
      </trkpt>
      <trkpt lat="45.28045" lon="5.94103">
        <ele>389</ele>
        <time>2011-05-07T07:38:53.0050Z</time>
      </trkpt>
      <trkpt lat="45.28002" lon="5.94088">
        <ele>394</ele>
        <time>2011-05-07T07:39:09.0050Z</time>
      </trkpt>
      <trkpt lat="45.27957" lon="5.9407">
        <ele>395</ele>
        <time>2011-05-07T07:39:25.0060Z</time>
      </trkpt>
      <trkpt lat="45.27917" lon="5.9404">
        <ele>398</ele>
        <time>2011-05-07T07:39:41.0060Z</time>
      </trkpt>
      <trkpt lat="45.2788" lon="5.94002">
        <ele>400</ele>
        <time>2011-05-07T07:39:55.0060Z</time>
      </trkpt>
      <trkpt lat="45.27842" lon="5.93963">
        <ele>401</ele>
        <time>2011-05-07T07:40:09.0060Z</time>
      </trkpt>
      <trkpt lat="45.27805" lon="5.93925">
        <ele>402</ele>
        <time>2011-05-07T07:40:23.0060Z</time>
      </trkpt>
      <trkpt lat="45.27765" lon="5.93887">
        <ele>404</ele>
        <time>2011-05-07T07:40:38.0050Z</time>
      </trkpt>
      <trkpt lat="45.27728" lon="5.93848">
        <ele>407</ele>
        <time>2011-05-07T07:40:53.0050Z</time>
      </trkpt>
      <trkpt lat="45.27687" lon="5.9382">
        <ele>410</ele>
        <time>2011-05-07T07:41:09.0060Z</time>
      </trkpt>
      <trkpt lat="45.2764" lon="5.93822">
        <ele>413</ele>
        <time>2011-05-07T07:41:24.0060Z</time>
      </trkpt>
      <trkpt lat="45.27593" lon="5.93818">
        <ele>417</ele>
        <time>2011-05-07T07:41:39.0050Z</time>
      </trkpt>
      <trkpt lat="45.27553" lon="5.9379">
        <ele>420</ele>
        <time>2011-05-07T07:41:55.0070Z</time>
      </trkpt>
      <trkpt lat="45.27513" lon="5.93755">
        <ele>424</ele>
        <time>2011-05-07T07:42:13.0060Z</time>
      </trkpt>
      <trkpt lat="45.27475" lon="5.93723">
        <ele>429</ele>
        <time>2011-05-07T07:42:31.0060Z</time>
      </trkpt>
      <trkpt lat="45.2743" lon="5.937">
        <ele>433</ele>
        <time>2011-05-07T07:42:50.0060Z</time>
      </trkpt>
      <trkpt lat="45.27385" lon="5.93682">
        <ele>438</ele>
        <time>2011-05-07T07:43:08.0050Z</time>
      </trkpt>
      <trkpt lat="45.2734" lon="5.93663">
        <ele>445</ele>
        <time>2011-05-07T07:43:26.0060Z</time>
      </trkpt>
      <trkpt lat="45.27295" lon="5.93642">
        <ele>449</ele>
        <time>2011-05-07T07:43:44.0060Z</time>
      </trkpt>
      <trkpt lat="45.27252" lon="5.93625">
        <ele>454</ele>
        <time>2011-05-07T07:44:02.0070Z</time>
      </trkpt>
      <trkpt lat="45.27207" lon="5.93613">
        <ele>458</ele>
        <time>2011-05-07T07:44:20.0060Z</time>
      </trkpt>
      <trkpt lat="45.27238" lon="5.93662">
        <ele>461</ele>
        <time>2011-05-07T07:44:41.0060Z</time>
      </trkpt>
      <trkpt lat="45.27277" lon="5.93695">
        <ele>465</ele>
        <time>2011-05-07T07:44:58.0050Z</time>
      </trkpt>
      <trkpt lat="45.27313" lon="5.93733">
        <ele>468</ele>
        <time>2011-05-07T07:45:15.0060Z</time>
      </trkpt>
      <trkpt lat="45.27352" lon="5.93773">
        <ele>469</ele>
        <time>2011-05-07T07:45:33.0060Z</time>
      </trkpt>
      <trkpt lat="45.27387" lon="5.93812">
        <ele>473</ele>
        <time>2011-05-07T07:45:51.0060Z</time>
      </trkpt>
      <trkpt lat="45.2742" lon="5.93857">
        <ele>477</ele>
        <time>2011-05-07T07:46:08.0070Z</time>
      </trkpt>
      <trkpt lat="45.2745" lon="5.93908">
        <ele>481</ele>
        <time>2011-05-07T07:46:25.0070Z</time>
      </trkpt>
      <trkpt lat="45.27473" lon="5.93967">
        <ele>483</ele>
        <time>2011-05-07T07:46:42.0060Z</time>
      </trkpt>
      <trkpt lat="45.27502" lon="5.9402">
        <ele>484</ele>
        <time>2011-05-07T07:47:00.0070Z</time>
      </trkpt>
      <trkpt lat="45.27535" lon="5.94067">
        <ele>487</ele>
        <time>2011-05-07T07:47:17.0080Z</time>
      </trkpt>
      <trkpt lat="45.27563" lon="5.94117">
        <ele>491</ele>
        <time>2011-05-07T07:47:33.0070Z</time>
      </trkpt>
      <trkpt lat="45.27598" lon="5.9416">
        <ele>494</ele>
        <time>2011-05-07T07:47:54.0080Z</time>
      </trkpt>
      <trkpt lat="45.27558" lon="5.94128">
        <ele>508</ele>
        <time>2011-05-07T07:52:34.0070Z</time>
      </trkpt>
      <trkpt lat="45.27523" lon="5.94083">
        <ele>510</ele>
        <time>2011-05-07T07:52:54.0080Z</time>
      </trkpt>
      <trkpt lat="45.27483" lon="5.94052">
        <ele>512</ele>
        <time>2011-05-07T07:53:14.0070Z</time>
      </trkpt>
      <trkpt lat="45.2744" lon="5.94028">
        <ele>514</ele>
        <time>2011-05-07T07:53:33.0080Z</time>
      </trkpt>
      <trkpt lat="45.274" lon="5.94002">
        <ele>517</ele>
        <time>2011-05-07T07:53:53.0090Z</time>
      </trkpt>
      <trkpt lat="45.27357" lon="5.94027">
        <ele>549</ele>
        <time>2011-05-07T07:56:49.0090Z</time>
      </trkpt>
      <trkpt lat="45.2731" lon="5.94022">
        <ele>554</ele>
        <time>2011-05-07T07:57:53.0080Z</time>
      </trkpt>
      <trkpt lat="45.27263" lon="5.94025">
        <ele>566</ele>
        <time>2011-05-07T07:58:17.0090Z</time>
      </trkpt>
      <trkpt lat="45.2723" lon="5.94068">
        <ele>570</ele>
        <time>2011-05-07T07:58:44.0100Z</time>
      </trkpt>
      <trkpt lat="45.272" lon="5.94115">
        <ele>579</ele>
        <time>2011-05-07T07:59:17.0090Z</time>
      </trkpt>
      <trkpt lat="45.27163" lon="5.94155">
        <ele>596</ele>
        <time>2011-05-07T07:59:56.0090Z</time>
      </trkpt>
      <trkpt lat="45.27143" lon="5.94213">
        <ele>595</ele>
        <time>2011-05-07T08:00:31.0090Z</time>
      </trkpt>
      <trkpt lat="45.2713" lon="5.94273">
        <ele>594</ele>
        <time>2011-05-07T08:01:06.0090Z</time>
      </trkpt>
      <trkpt lat="45.27125" lon="5.94338">
        <ele>592</ele>
        <time>2011-05-07T08:01:44.0100Z</time>
      </trkpt>
      <trkpt lat="45.27118" lon="5.94403">
        <ele>598</ele>
        <time>2011-05-07T08:02:23.0090Z</time>
      </trkpt>
      <trkpt lat="45.27122" lon="5.94468">
        <ele>598</ele>
        <time>2011-05-07T08:02:50.0100Z</time>
      </trkpt>
      <trkpt lat="45.27127" lon="5.94532">
        <ele>604</ele>
        <time>2011-05-07T08:03:18.0100Z</time>
      </trkpt>
      <trkpt lat="45.27138" lon="5.94593">
        <ele>627</ele>
        <time>2011-05-07T08:03:48.0710Z</time>
      </trkpt>
      <trkpt lat="45.27138" lon="5.9466">
        <ele>618</ele>
        <time>2011-05-07T08:04:09.0100Z</time>
      </trkpt>
      <trkpt lat="45.27137" lon="5.94725">
        <ele>618</ele>
        <time>2011-05-07T08:04:35.0100Z</time>
      </trkpt>
      <trkpt lat="45.27133" lon="5.9479">
        <ele>628</ele>
        <time>2011-05-07T08:05:04.0100Z</time>
      </trkpt>
      <trkpt lat="45.27128" lon="5.94853">
        <ele>634</ele>
        <time>2011-05-07T08:05:33.0090Z</time>
      </trkpt>
      <trkpt lat="45.27122" lon="5.94917">
        <ele>635</ele>
        <time>2011-05-07T08:06:01.0090Z</time>
      </trkpt>
      <trkpt lat="45.27113" lon="5.94982">
        <ele>639</ele>
        <time>2011-05-07T08:06:34.0090Z</time>
      </trkpt>
      <trkpt lat="45.27112" lon="5.95047">
        <ele>648</ele>
        <time>2011-05-07T08:07:12.0100Z</time>
      </trkpt>
      <trkpt lat="45.27105" lon="5.9511">
        <ele>655</ele>
        <time>2011-05-07T08:07:45.0100Z</time>
      </trkpt>
      <trkpt lat="45.27108" lon="5.95175">
        <ele>658</ele>
        <time>2011-05-07T08:08:14.0090Z</time>
      </trkpt>
      <trkpt lat="45.27092" lon="5.95235">
        <ele>667</ele>
        <time>2011-05-07T08:08:47.0110Z</time>
      </trkpt>
      <trkpt lat="45.27092" lon="5.953">
        <ele>683</ele>
        <time>2011-05-07T08:09:42.0100Z</time>
      </trkpt>
      <trkpt lat="45.27102" lon="5.95362">
        <ele>691</ele>
        <time>2011-05-07T08:11:15.0120Z</time>
      </trkpt>
      <trkpt lat="45.2711" lon="5.95425">
        <ele>699</ele>
        <time>2011-05-07T08:11:53.0120Z</time>
      </trkpt>
      <trkpt lat="45.27113" lon="5.95488">
        <ele>703</ele>
        <time>2011-05-07T08:12:25.0110Z</time>
      </trkpt>
      <trkpt lat="45.27128" lon="5.9555">
        <ele>701</ele>
        <time>2011-05-07T08:13:00.0110Z</time>
      </trkpt>
      <trkpt lat="45.27143" lon="5.95613">
        <ele>705</ele>
        <time>2011-05-07T08:13:24.0120Z</time>
      </trkpt>
      <trkpt lat="45.27155" lon="5.95675">
        <ele>712</ele>
        <time>2011-05-07T08:13:55.0110Z</time>
      </trkpt>
      <trkpt lat="45.27168" lon="5.95737">
        <ele>721</ele>
        <time>2011-05-07T08:15:21.0100Z</time>
      </trkpt>
      <trkpt lat="45.27183" lon="5.95798">
        <ele>725</ele>
        <time>2011-05-07T08:17:56.0120Z</time>
      </trkpt>
      <trkpt lat="45.27197" lon="5.95862">
        <ele>726</ele>
        <time>2011-05-07T08:18:19.0120Z</time>
      </trkpt>
      <trkpt lat="45.27197" lon="5.95927">
        <ele>725</ele>
        <time>2011-05-07T08:18:34.0110Z</time>
      </trkpt>
      <trkpt lat="45.27168" lon="5.95978">
        <ele>728</ele>
        <time>2011-05-07T08:18:50.0110Z</time>
      </trkpt>
      <trkpt lat="45.27183" lon="5.96042">
        <ele>731</ele>
        <time>2011-05-07T08:19:08.0130Z</time>
      </trkpt>
      <trkpt lat="45.27208" lon="5.96095">
        <ele>730</ele>
        <time>2011-05-07T08:21:55.0130Z</time>
      </trkpt>
      <trkpt lat="45.27188" lon="5.96153">
        <ele>741</ele>
        <time>2011-05-07T08:27:48.0650Z</time>
      </trkpt>
      <trkpt lat="45.27155" lon="5.962">
        <ele>738</ele>
        <time>2011-05-07T08:28:00.0130Z</time>
      </trkpt>
      <trkpt lat="45.27137" lon="5.9626">
        <ele>739</ele>
        <time>2011-05-07T08:28:18.0120Z</time>
      </trkpt>
      <trkpt lat="45.27117" lon="5.96317">
        <ele>741</ele>
        <time>2011-05-07T08:28:44.0120Z</time>
      </trkpt>
      <trkpt lat="45.27102" lon="5.9638">
        <ele>740</ele>
        <time>2011-05-07T08:29:01.0120Z</time>
      </trkpt>
      <trkpt lat="45.27108" lon="5.96445">
        <ele>748</ele>
        <time>2011-05-07T08:29:21.0120Z</time>
      </trkpt>
      <trkpt lat="45.27083" lon="5.96498">
        <ele>748</ele>
        <time>2011-05-07T08:29:38.0130Z</time>
      </trkpt>
      <trkpt lat="45.27072" lon="5.96563">
        <ele>750</ele>
        <time>2011-05-07T08:31:30.0120Z</time>
      </trkpt>
      <trkpt lat="45.2708" lon="5.96632">
        <ele>744</ele>
        <time>2011-05-07T08:31:40.0130Z</time>
      </trkpt>
      <trkpt lat="45.27048" lon="5.96682">
        <ele>740</ele>
        <time>2011-05-07T08:31:46.0120Z</time>
      </trkpt>
      <trkpt lat="45.2701" lon="5.96728">
        <ele>735</ele>
        <time>2011-05-07T08:31:51.0120Z</time>
      </trkpt>
      <trkpt lat="45.26982" lon="5.96785">
        <ele>730</ele>
        <time>2011-05-07T08:31:56.0120Z</time>
      </trkpt>
      <trkpt lat="45.26963" lon="5.96845">
        <ele>725</ele>
        <time>2011-05-07T08:32:07.0120Z</time>
      </trkpt>
      <trkpt lat="45.26965" lon="5.96913">
        <ele>724</ele>
        <time>2011-05-07T08:32:16.0110Z</time>
      </trkpt>
      <trkpt lat="45.26955" lon="5.96978">
        <ele>722</ele>
        <time>2011-05-07T08:32:23.0130Z</time>
      </trkpt>
      <trkpt lat="45.2691" lon="5.96958">
        <ele>723</ele>
        <time>2011-05-07T08:32:36.0120Z</time>
      </trkpt>
      <trkpt lat="45.2689" lon="5.96898">
        <ele>723</ele>
        <time>2011-05-07T08:32:43.0660Z</time>
      </trkpt>
      <trkpt lat="45.26843" lon="5.96877">
        <ele>723</ele>
        <time>2011-05-07T08:32:50.0690Z</time>
      </trkpt>
      <trkpt lat="45.26785" lon="5.96885">
        <ele>723</ele>
        <time>2011-05-07T08:33:00.0130Z</time>
      </trkpt>
      <trkpt lat="45.26768" lon="5.96825">
        <ele>708</ele>
        <time>2011-05-07T08:33:14.0130Z</time>
      </trkpt>
      <trkpt lat="45.26762" lon="5.9676">
        <ele>715</ele>
        <time>2011-05-07T08:33:27.0120Z</time>
      </trkpt>
      <trkpt lat="45.26733" lon="5.9671">
        <ele>716</ele>
        <time>2011-05-07T08:33:39.0120Z</time>
      </trkpt>
      <trkpt lat="45.26703" lon="5.96658">
        <ele>716</ele>
        <time>2011-05-07T08:33:52.0130Z</time>
      </trkpt>
      <trkpt lat="45.26715" lon="5.96592">
        <ele>720</ele>
        <time>2011-05-07T08:34:09.0120Z</time>
      </trkpt>
      <trkpt lat="45.26737" lon="5.96533">
        <ele>716</ele>
        <time>2011-05-07T08:34:24.0130Z</time>
      </trkpt>
      <trkpt lat="45.26705" lon="5.96483">
        <ele>722</ele>
        <time>2011-05-07T08:34:39.0130Z</time>
      </trkpt>
      <trkpt lat="45.26708" lon="5.96418">
        <ele>724</ele>
        <time>2011-05-07T08:34:56.0120Z</time>
      </trkpt>
      <trkpt lat="45.26715" lon="5.96355">
        <ele>727</ele>
        <time>2011-05-07T08:35:11.0130Z</time>
      </trkpt>
      <trkpt lat="45.26688" lon="5.963">
        <ele>729</ele>
        <time>2011-05-07T08:35:24.0140Z</time>
      </trkpt>
      <trkpt lat="45.2667" lon="5.96242">
        <ele>736</ele>
        <time>2011-05-07T08:35:43.0130Z</time>
      </trkpt>
      <trkpt lat="45.26647" lon="5.96185">
        <ele>741</ele>
        <time>2011-05-07T08:36:04.0130Z</time>
      </trkpt>
      <trkpt lat="45.26622" lon="5.9613">
        <ele>746</ele>
        <time>2011-05-07T08:36:28.0130Z</time>
      </trkpt>
      <trkpt lat="45.26588" lon="5.96085">
        <ele>750</ele>
        <time>2011-05-07T08:36:56.0130Z</time>
      </trkpt>
      <trkpt lat="45.26572" lon="5.96027">
        <ele>751</ele>
        <time>2011-05-07T08:38:12.0140Z</time>
      </trkpt>
      <trkpt lat="45.26572" lon="5.95958">
        <ele>745</ele>
        <time>2011-05-07T08:38:24.0750Z</time>
      </trkpt>
      <trkpt lat="45.26552" lon="5.95898">
        <ele>742</ele>
        <time>2011-05-07T08:38:41.0130Z</time>
      </trkpt>
      <trkpt lat="45.26537" lon="5.95837">
        <ele>739</ele>
        <time>2011-05-07T08:38:57.0140Z</time>
      </trkpt>
      <trkpt lat="45.26513" lon="5.95783">
        <ele>739</ele>
        <time>2011-05-07T08:39:17.0130Z</time>
      </trkpt>
      <trkpt lat="45.26483" lon="5.95732">
        <ele>739</ele>
        <time>2011-05-07T08:39:40.0130Z</time>
      </trkpt>
      <trkpt lat="45.2646" lon="5.95677">
        <ele>732</ele>
        <time>2011-05-07T08:39:59.0140Z</time>
      </trkpt>
      <trkpt lat="45.26425" lon="5.95635">
        <ele>740</ele>
        <time>2011-05-07T08:43:32.0150Z</time>
      </trkpt>
      <trkpt lat="45.26432" lon="5.95573">
        <ele>782</ele>
        <time>2011-05-07T08:55:46.0170Z</time>
      </trkpt>
      <trkpt lat="45.26425" lon="5.9551">
        <ele>738</ele>
        <time>2011-05-07T08:56:33.0170Z</time>
      </trkpt>
      <trkpt lat="45.26387" lon="5.95473">
        <ele>739</ele>
        <time>2011-05-07T08:56:52.0170Z</time>
      </trkpt>
      <trkpt lat="45.2641" lon="5.95418">
        <ele>755</ele>
        <time>2011-05-07T08:57:15.0170Z</time>
      </trkpt>
      <trkpt lat="45.2639" lon="5.9536">
        <ele>755</ele>
        <time>2011-05-07T08:57:32.0720Z</time>
      </trkpt>
      <trkpt lat="45.26352" lon="5.95325">
        <ele>752</ele>
        <time>2011-05-07T08:57:57.0170Z</time>
      </trkpt>
      <trkpt lat="45.2637" lon="5.95265">
        <ele>759</ele>
        <time>2011-05-07T08:58:39.0150Z</time>
      </trkpt>
      <trkpt lat="45.26378" lon="5.95202">
        <ele>767</ele>
        <time>2011-05-07T08:59:05.0170Z</time>
      </trkpt>
      <trkpt lat="45.26382" lon="5.95137">
        <ele>768</ele>
        <time>2011-05-07T08:59:40.0170Z</time>
      </trkpt>
      <trkpt lat="45.2637" lon="5.95075">
        <ele>774</ele>
        <time>2011-05-07T09:00:28.0160Z</time>
      </trkpt>
      <trkpt lat="45.26382" lon="5.95012">
        <ele>790</ele>
        <time>2011-05-07T09:01:03.0160Z</time>
      </trkpt>
      <trkpt lat="45.2638" lon="5.94948">
        <ele>795</ele>
        <time>2011-05-07T09:01:39.0160Z</time>
      </trkpt>
      <trkpt lat="45.26367" lon="5.94885">
        <ele>785</ele>
        <time>2011-05-07T09:02:10.0150Z</time>
      </trkpt>
      <trkpt lat="45.26358" lon="5.94693">
        <ele>785</ele>
        <time>2011-05-07T09:02:36.0170Z</time>
      </trkpt>
      <trkpt lat="45.2633" lon="5.94642">
        <ele>796</ele>
        <time>2011-05-07T09:02:59.0170Z</time>
      </trkpt>
      <trkpt lat="45.26293" lon="5.946">
        <ele>802</ele>
        <time>2011-05-07T09:03:22.0160Z</time>
      </trkpt>
      <trkpt lat="45.26207" lon="5.94413">
        <ele>802</ele>
        <time>2011-05-07T09:03:48.0160Z</time>
      </trkpt>
      <trkpt lat="45.2619" lon="5.94308">
        <ele>802</ele>
        <time>2011-05-07T09:04:05.0170Z</time>
      </trkpt>
      <trkpt lat="45.26193" lon="5.94243">
        <ele>802</ele>
        <time>2011-05-07T09:04:11.0790Z</time>
      </trkpt>
      <trkpt lat="45.26218" lon="5.93965">
        <ele>802</ele>
        <time>2011-05-07T09:04:40.0160Z</time>
      </trkpt>
      <trkpt lat="45.26263" lon="5.93968">
        <ele>802</ele>
        <time>2011-05-07T09:04:41.0180Z</time>
      </trkpt>
      <trkpt lat="45.2623" lon="5.9392">
        <ele>781</ele>
        <time>2011-05-07T09:04:49.0170Z</time>
      </trkpt>
      <trkpt lat="45.26198" lon="5.93872">
        <ele>784</ele>
        <time>2011-05-07T09:04:59.0170Z</time>
      </trkpt>
      <trkpt lat="45.26145" lon="5.93813">
        <ele>784</ele>
        <time>2011-05-07T09:05:09.0160Z</time>
      </trkpt>
      <trkpt lat="45.26113" lon="5.93757">
        <ele>779</ele>
        <time>2011-05-07T09:05:13.0680Z</time>
      </trkpt>
      <trkpt lat="45.26068" lon="5.9362">
        <ele>779</ele>
        <time>2011-05-07T09:05:23.0160Z</time>
      </trkpt>
      <trkpt lat="45.26053" lon="5.93555">
        <ele>779</ele>
        <time>2011-05-07T09:05:28.0780Z</time>
      </trkpt>
      <trkpt lat="45.26022" lon="5.93502">
        <ele>779</ele>
        <time>2011-05-07T09:05:36.0170Z</time>
      </trkpt>
      <trkpt lat="45.25977" lon="5.93492">
        <ele>786</ele>
        <time>2011-05-07T09:06:41.0720Z</time>
      </trkpt>
      <trkpt lat="45.25928" lon="5.93255">
        <ele>786</ele>
        <time>2011-05-07T09:07:10.0170Z</time>
      </trkpt>
      <trkpt lat="45.25895" lon="5.93195">
        <ele>766</ele>
        <time>2011-05-07T09:07:16.0170Z</time>
      </trkpt>
      <trkpt lat="45.25857" lon="5.93155">
        <ele>758</ele>
        <time>2011-05-07T09:07:20.0160Z</time>
      </trkpt>
      <trkpt lat="45.25822" lon="5.93112">
        <ele>758</ele>
        <time>2011-05-07T09:07:24.0170Z</time>
      </trkpt>
      <trkpt lat="45.25787" lon="5.93067">
        <ele>758</ele>
        <time>2011-05-07T09:07:28.0700Z</time>
      </trkpt>
      <trkpt lat="45.25753" lon="5.93008">
        <ele>755</ele>
        <time>2011-05-07T09:07:33.0170Z</time>
      </trkpt>
      <trkpt lat="45.25728" lon="5.92942">
        <ele>755</ele>
        <time>2011-05-07T09:07:36.0700Z</time>
      </trkpt>
      <trkpt lat="45.25705" lon="5.92887">
        <ele>752</ele>
        <time>2011-05-07T09:07:42.0170Z</time>
      </trkpt>
      <trkpt lat="45.25677" lon="5.92835">
        <ele>743</ele>
        <time>2011-05-07T09:07:52.0170Z</time>
      </trkpt>
      <trkpt lat="45.25652" lon="5.92888">
        <ele>733</ele>
        <time>2011-05-07T09:09:28.0170Z</time>
      </trkpt>
      <trkpt lat="45.25663" lon="5.9295">
        <ele>745</ele>
        <time>2011-05-07T09:10:52.0180Z</time>
      </trkpt>
      <trkpt lat="45.25658" lon="5.93013">
        <ele>750</ele>
        <time>2011-05-07T09:12:21.0180Z</time>
      </trkpt>
      <trkpt lat="45.25682" lon="5.93068">
        <ele>775</ele>
        <time>2011-05-07T09:13:49.0170Z</time>
      </trkpt>
      <trkpt lat="45.25707" lon="5.93123">
        <ele>787</ele>
        <time>2011-05-07T09:15:18.0170Z</time>
      </trkpt>
      <trkpt lat="45.25697" lon="5.93187">
        <ele>808</ele>
        <time>2011-05-07T09:17:59.0210Z</time>
      </trkpt>
      <trkpt lat="45.25713" lon="5.93247">
        <ele>825</ele>
        <time>2011-05-07T09:20:34.0190Z</time>
      </trkpt>
      <trkpt lat="45.25737" lon="5.93302">
        <ele>829</ele>
        <time>2011-05-07T09:21:18.0190Z</time>
      </trkpt>
      <trkpt lat="45.2577" lon="5.93347">
        <ele>836</ele>
        <time>2011-05-07T09:21:55.0190Z</time>
      </trkpt>
      <trkpt lat="45.25805" lon="5.93393">
        <ele>836</ele>
        <time>2011-05-07T09:22:14.0190Z</time>
      </trkpt>
      <trkpt lat="45.2582" lon="5.93453">
        <ele>837</ele>
        <time>2011-05-07T09:22:34.0200Z</time>
      </trkpt>
      <trkpt lat="45.25832" lon="5.93517">
        <ele>845</ele>
        <time>2011-05-07T09:23:04.0200Z</time>
      </trkpt>
      <trkpt lat="45.25857" lon="5.93573">
        <ele>846</ele>
        <time>2011-05-07T09:23:31.0190Z</time>
      </trkpt>
      <trkpt lat="45.25885" lon="5.93622">
        <ele>846</ele>
        <time>2011-05-07T09:23:52.0190Z</time>
      </trkpt>
      <trkpt lat="45.2588" lon="5.93687">
        <ele>863</ele>
        <time>2011-05-07T09:27:29.0200Z</time>
      </trkpt>
      <trkpt lat="45.25875" lon="5.9375">
        <ele>872</ele>
        <time>2011-05-07T09:28:35.0200Z</time>
      </trkpt>
      <trkpt lat="45.2586" lon="5.93812">
        <ele>873</ele>
        <time>2011-05-07T09:29:03.0200Z</time>
      </trkpt>
      <trkpt lat="45.2587" lon="5.93873">
        <ele>887</ele>
        <time>2011-05-07T09:29:47.0200Z</time>
      </trkpt>
      <trkpt lat="45.25888" lon="5.93933">
        <ele>893</ele>
        <time>2011-05-07T09:30:53.0200Z</time>
      </trkpt>
      <trkpt lat="45.25902" lon="5.93993">
        <ele>925</ele>
        <time>2011-05-07T09:32:09.0210Z</time>
      </trkpt>
      <trkpt lat="45.25902" lon="5.94058">
        <ele>952</ele>
        <time>2011-05-07T09:32:53.0210Z</time>
      </trkpt>
      <trkpt lat="45.25897" lon="5.94123">
        <ele>959</ele>
        <time>2011-05-07T09:33:29.0200Z</time>
      </trkpt>
      <trkpt lat="45.25897" lon="5.94187">
        <ele>961</ele>
        <time>2011-05-07T09:34:13.0210Z</time>
      </trkpt>
      <trkpt lat="45.25897" lon="5.94252">
        <ele>962</ele>
        <time>2011-05-07T09:36:24.0220Z</time>
      </trkpt>
      <trkpt lat="45.25903" lon="5.94315">
        <ele>958</ele>
        <time>2011-05-07T09:36:57.0210Z</time>
      </trkpt>
      <trkpt lat="45.25913" lon="5.94378">
        <ele>955</ele>
        <time>2011-05-07T09:37:19.0740Z</time>
      </trkpt>
      <trkpt lat="45.25935" lon="5.94437">
        <ele>948</ele>
        <time>2011-05-07T09:37:41.0210Z</time>
      </trkpt>
      <trkpt lat="45.2595" lon="5.945">
        <ele>948</ele>
        <time>2011-05-07T09:38:04.0210Z</time>
      </trkpt>
      <trkpt lat="45.25935" lon="5.94605">
        <ele>948</ele>
        <time>2011-05-07T09:38:22.0220Z</time>
      </trkpt>
      <trkpt lat="45.25915" lon="5.94667">
        <ele>948</ele>
        <time>2011-05-07T09:38:32.0730Z</time>
      </trkpt>
      <trkpt lat="45.25898" lon="5.94728">
        <ele>932</ele>
        <time>2011-05-07T09:38:44.0220Z</time>
      </trkpt>
      <trkpt lat="45.25892" lon="5.94793">
        <ele>940</ele>
        <time>2011-05-07T09:38:57.0220Z</time>
      </trkpt>
      <trkpt lat="45.25887" lon="5.9486">
        <ele>943</ele>
        <time>2011-05-07T09:39:08.0220Z</time>
      </trkpt>
      <trkpt lat="45.25877" lon="5.94923">
        <ele>949</ele>
        <time>2011-05-07T09:39:26.0210Z</time>
      </trkpt>
      <trkpt lat="45.25862" lon="5.94983">
        <ele>958</ele>
        <time>2011-05-07T09:39:49.0210Z</time>
      </trkpt>
      <trkpt lat="45.25848" lon="5.95047">
        <ele>957</ele>
        <time>2011-05-07T09:40:20.0210Z</time>
      </trkpt>
      <trkpt lat="45.25837" lon="5.95108">
        <ele>976</ele>
        <time>2011-05-07T09:40:53.0220Z</time>
      </trkpt>
      <trkpt lat="45.25825" lon="5.9517">
        <ele>973</ele>
        <time>2011-05-07T09:41:20.0220Z</time>
      </trkpt>
      <trkpt lat="45.25815" lon="5.95233">
        <ele>987</ele>
        <time>2011-05-07T09:41:45.0220Z</time>
      </trkpt>
      <trkpt lat="45.25817" lon="5.95298">
        <ele>990</ele>
        <time>2011-05-07T09:42:11.0220Z</time>
      </trkpt>
      <trkpt lat="45.25812" lon="5.95362">
        <ele>996</ele>
        <time>2011-05-07T09:42:35.0210Z</time>
      </trkpt>
      <trkpt lat="45.2581" lon="5.95428">
        <ele>1000</ele>
        <time>2011-05-07T09:43:01.0210Z</time>
      </trkpt>
      <trkpt lat="45.25803" lon="5.95493">
        <ele>1013</ele>
        <time>2011-05-07T09:43:24.0230Z</time>
      </trkpt>
      <trkpt lat="45.25805" lon="5.95558">
        <ele>1017</ele>
        <time>2011-05-07T09:43:47.0220Z</time>
      </trkpt>
      <trkpt lat="45.25808" lon="5.95623">
        <ele>1017</ele>
        <time>2011-05-07T09:44:07.0210Z</time>
      </trkpt>
      <trkpt lat="45.25808" lon="5.95688">
        <ele>1023</ele>
        <time>2011-05-07T09:44:26.0210Z</time>
      </trkpt>
      <trkpt lat="45.25803" lon="5.95753">
        <ele>1022</ele>
        <time>2011-05-07T09:44:50.0220Z</time>
      </trkpt>
      <trkpt lat="45.25787" lon="5.95813">
        <ele>1029</ele>
        <time>2011-05-07T09:45:14.0230Z</time>
      </trkpt>
      <trkpt lat="45.25762" lon="5.95868">
        <ele>1042</ele>
        <time>2011-05-07T09:45:44.0220Z</time>
      </trkpt>
      <trkpt lat="45.25732" lon="5.95917">
        <ele>1047</ele>
        <time>2011-05-07T09:46:07.0220Z</time>
      </trkpt>
      <trkpt lat="45.257" lon="5.95965">
        <ele>1053</ele>
        <time>2011-05-07T09:46:29.0220Z</time>
      </trkpt>
      <trkpt lat="45.25678" lon="5.96022">
        <ele>1056</ele>
        <time>2011-05-07T09:46:50.0230Z</time>
      </trkpt>
      <trkpt lat="45.25682" lon="5.96087">
        <ele>1060</ele>
        <time>2011-05-07T09:47:14.0210Z</time>
      </trkpt>
      <trkpt lat="45.2567" lon="5.96153">
        <ele>1062</ele>
        <time>2011-05-07T09:47:28.0750Z</time>
      </trkpt>
      <trkpt lat="45.25655" lon="5.96215">
        <ele>1061</ele>
        <time>2011-05-07T09:47:41.0230Z</time>
      </trkpt>
      <trkpt lat="45.2564" lon="5.96277">
        <ele>1050</ele>
        <time>2011-05-07T09:47:57.0220Z</time>
      </trkpt>
      <trkpt lat="45.25627" lon="5.96338">
        <ele>1038</ele>
        <time>2011-05-07T09:48:09.0220Z</time>
      </trkpt>
      <trkpt lat="45.25612" lon="5.964">
        <ele>1031</ele>
        <time>2011-05-07T09:48:22.0230Z</time>
      </trkpt>
      <trkpt lat="45.25597" lon="5.96462">
        <ele>1030</ele>
        <time>2011-05-07T09:48:38.0210Z</time>
      </trkpt>
      <trkpt lat="45.25585" lon="5.96523">
        <ele>1030</ele>
        <time>2011-05-07T09:48:55.0220Z</time>
      </trkpt>
      <trkpt lat="45.25567" lon="5.96585">
        <ele>1026</ele>
        <time>2011-05-07T09:49:14.0220Z</time>
      </trkpt>
      <trkpt lat="45.25542" lon="5.96647">
        <ele>1024</ele>
        <time>2011-05-07T09:49:25.0230Z</time>
      </trkpt>
      <trkpt lat="45.2551" lon="5.96695">
        <ele>1017</ele>
        <time>2011-05-07T09:49:34.0220Z</time>
      </trkpt>
      <trkpt lat="45.25498" lon="5.96768">
        <ele>1016</ele>
        <time>2011-05-07T09:49:41.0750Z</time>
      </trkpt>
      <trkpt lat="45.25492" lon="5.96837">
        <ele>1007</ele>
        <time>2011-05-07T09:49:48.0230Z</time>
      </trkpt>
      <trkpt lat="45.255" lon="5.9691">
        <ele>1001</ele>
        <time>2011-05-07T09:49:54.0220Z</time>
      </trkpt>
      <trkpt lat="45.25508" lon="5.96972">
        <ele>999</ele>
        <time>2011-05-07T09:50:00.0230Z</time>
      </trkpt>
      <trkpt lat="45.25507" lon="5.97037">
        <ele>997</ele>
        <time>2011-05-07T09:50:12.0230Z</time>
      </trkpt>
      <trkpt lat="45.25463" lon="5.97008">
        <ele>999</ele>
        <time>2011-05-07T09:53:54.0230Z</time>
      </trkpt>
      <trkpt lat="45.2542" lon="5.9698">
        <ele>1000</ele>
        <time>2011-05-07T09:54:07.0220Z</time>
      </trkpt>
      <trkpt lat="45.25373" lon="5.96975">
        <ele>1000</ele>
        <time>2011-05-07T09:54:20.0230Z</time>
      </trkpt>
      <trkpt lat="45.25325" lon="5.96975">
        <ele>999</ele>
        <time>2011-05-07T09:54:33.0220Z</time>
      </trkpt>
      <trkpt lat="45.25278" lon="5.96973">
        <ele>999</ele>
        <time>2011-05-07T09:54:45.0230Z</time>
      </trkpt>
      <trkpt lat="45.25233" lon="5.96975">
        <ele>1000</ele>
        <time>2011-05-07T09:54:58.0220Z</time>
      </trkpt>
      <trkpt lat="45.25197" lon="5.97018">
        <ele>999</ele>
        <time>2011-05-07T09:55:11.0230Z</time>
      </trkpt>
      <trkpt lat="45.25152" lon="5.97025">
        <ele>999</ele>
        <time>2011-05-07T09:55:22.0220Z</time>
      </trkpt>
      <trkpt lat="45.2511" lon="5.97057">
        <ele>1001</ele>
        <time>2011-05-07T09:55:38.0240Z</time>
      </trkpt>
      <trkpt lat="45.25078" lon="5.97105">
        <ele>1004</ele>
        <time>2011-05-07T09:55:53.0230Z</time>
      </trkpt>
      <trkpt lat="45.25067" lon="5.97168">
        <ele>1005</ele>
        <time>2011-05-07T09:56:07.0230Z</time>
      </trkpt>
      <trkpt lat="45.25067" lon="5.97233">
        <ele>1009</ele>
        <time>2011-05-07T09:56:24.0230Z</time>
      </trkpt>
      <trkpt lat="45.25055" lon="5.97298">
        <ele>1008</ele>
        <time>2011-05-07T09:56:40.0230Z</time>
      </trkpt>
      <trkpt lat="45.25013" lon="5.97327">
        <ele>1010</ele>
        <time>2011-05-07T09:56:55.0230Z</time>
      </trkpt>
      <trkpt lat="45.24972" lon="5.97357">
        <ele>1016</ele>
        <time>2011-05-07T09:57:11.0230Z</time>
      </trkpt>
      <trkpt lat="45.24935" lon="5.97395">
        <ele>1021</ele>
        <time>2011-05-07T09:57:29.0230Z</time>
      </trkpt>
      <trkpt lat="45.24898" lon="5.97433">
        <ele>1027</ele>
        <time>2011-05-07T09:57:51.0240Z</time>
      </trkpt>
      <trkpt lat="45.24863" lon="5.97473">
        <ele>1029</ele>
        <time>2011-05-07T09:58:15.0220Z</time>
      </trkpt>
      <trkpt lat="45.2483" lon="5.97517">
        <ele>1032</ele>
        <time>2011-05-07T09:58:39.0230Z</time>
      </trkpt>
      <trkpt lat="45.24805" lon="5.97572">
        <ele>1035</ele>
        <time>2011-05-07T09:59:00.0230Z</time>
      </trkpt>
      <trkpt lat="45.24782" lon="5.97627">
        <ele>1037</ele>
        <time>2011-05-07T09:59:21.0230Z</time>
      </trkpt>
      <trkpt lat="45.24743" lon="5.97667">
        <ele>1041</ele>
        <time>2011-05-07T09:59:43.0230Z</time>
      </trkpt>
      <trkpt lat="45.24703" lon="5.97698">
        <ele>1045</ele>
        <time>2011-05-07T10:00:06.0230Z</time>
      </trkpt>
      <trkpt lat="45.24665" lon="5.97732">
        <ele>1045</ele>
        <time>2011-05-07T10:00:28.0240Z</time>
      </trkpt>
      <trkpt lat="45.24625" lon="5.97763">
        <ele>1049</ele>
        <time>2011-05-07T10:00:51.0240Z</time>
      </trkpt>
      <trkpt lat="45.24585" lon="5.97798">
        <ele>1054</ele>
        <time>2011-05-07T10:01:14.0230Z</time>
      </trkpt>
      <trkpt lat="45.2455" lon="5.9784">
        <ele>1059</ele>
        <time>2011-05-07T10:01:40.0240Z</time>
      </trkpt>
      <trkpt lat="45.24517" lon="5.97888">
        <ele>1079</ele>
        <time>2011-05-07T10:02:05.0230Z</time>
      </trkpt>
      <trkpt lat="45.24477" lon="5.9792">
        <ele>1104</ele>
        <time>2011-05-07T10:02:27.0230Z</time>
      </trkpt>
      <trkpt lat="45.24433" lon="5.97943">
        <ele>1110</ele>
        <time>2011-05-07T10:02:49.0240Z</time>
      </trkpt>
      <trkpt lat="45.24388" lon="5.97963">
        <ele>1108</ele>
        <time>2011-05-07T10:03:09.0240Z</time>
      </trkpt>
      <trkpt lat="45.24345" lon="5.97985">
        <ele>1107</ele>
        <time>2011-05-07T10:03:30.0240Z</time>
      </trkpt>
      <trkpt lat="45.243" lon="5.98002">
        <ele>1114</ele>
        <time>2011-05-07T10:03:51.0240Z</time>
      </trkpt>
      <trkpt lat="45.24257" lon="5.98023">
        <ele>1117</ele>
        <time>2011-05-07T10:04:15.0240Z</time>
      </trkpt>
      <trkpt lat="45.24213" lon="5.98042">
        <ele>1126</ele>
        <time>2011-05-07T10:07:13.0240Z</time>
      </trkpt>
      <trkpt lat="45.2418" lon="5.98087">
        <ele>1132</ele>
        <time>2011-05-07T10:07:43.0260Z</time>
      </trkpt>
      <trkpt lat="45.24138" lon="5.98113">
        <ele>1135</ele>
        <time>2011-05-07T10:08:10.0250Z</time>
      </trkpt>
      <trkpt lat="45.24107" lon="5.98158">
        <ele>1144</ele>
        <time>2011-05-07T10:08:37.0240Z</time>
      </trkpt>
      <trkpt lat="45.24097" lon="5.98222">
        <ele>1139</ele>
        <time>2011-05-07T10:09:01.0250Z</time>
      </trkpt>
      <trkpt lat="45.24072" lon="5.98275">
        <ele>1141</ele>
        <time>2011-05-07T10:09:24.0240Z</time>
      </trkpt>
      <trkpt lat="45.24028" lon="5.98295">
        <ele>1145</ele>
        <time>2011-05-07T10:09:49.0250Z</time>
      </trkpt>
      <trkpt lat="45.23985" lon="5.98312">
        <ele>1149</ele>
        <time>2011-05-07T10:10:16.0250Z</time>
      </trkpt>
      <trkpt lat="45.23945" lon="5.98348">
        <ele>1170</ele>
        <time>2011-05-07T10:10:40.0250Z</time>
      </trkpt>
      <trkpt lat="45.2392" lon="5.98402">
        <ele>1172</ele>
        <time>2011-05-07T10:11:03.0250Z</time>
      </trkpt>
      <trkpt lat="45.23878" lon="5.98432">
        <ele>1175</ele>
        <time>2011-05-07T10:11:26.0250Z</time>
      </trkpt>
      <trkpt lat="45.23833" lon="5.98428">
        <ele>1172</ele>
        <time>2011-05-07T10:11:51.0250Z</time>
      </trkpt>
      <trkpt lat="45.23788" lon="5.98437">
        <ele>1169</ele>
        <time>2011-05-07T10:12:14.0250Z</time>
      </trkpt>
      <trkpt lat="45.23747" lon="5.98468">
        <ele>1166</ele>
        <time>2011-05-07T10:12:38.0260Z</time>
      </trkpt>
      <trkpt lat="45.23707" lon="5.98497">
        <ele>1168</ele>
        <time>2011-05-07T10:13:02.0250Z</time>
      </trkpt>
      <trkpt lat="45.2366" lon="5.98495">
        <ele>1166</ele>
        <time>2011-05-07T10:13:30.0250Z</time>
      </trkpt>
      <trkpt lat="45.23618" lon="5.9852">
        <ele>1167</ele>
        <time>2011-05-07T10:13:54.0250Z</time>
      </trkpt>
      <trkpt lat="45.23578" lon="5.98552">
        <ele>1178</ele>
        <time>2011-05-07T10:14:20.0250Z</time>
      </trkpt>
      <trkpt lat="45.23547" lon="5.98598">
        <ele>1193</ele>
        <time>2011-05-07T10:14:49.0260Z</time>
      </trkpt>
      <trkpt lat="45.23513" lon="5.98643">
        <ele>1218</ele>
        <time>2011-05-07T10:15:17.0260Z</time>
      </trkpt>
      <trkpt lat="45.23485" lon="5.98695">
        <ele>1219</ele>
        <time>2011-05-07T10:15:42.0250Z</time>
      </trkpt>
      <trkpt lat="45.2345" lon="5.98738">
        <ele>1217</ele>
        <time>2011-05-07T10:16:03.0260Z</time>
      </trkpt>
      <trkpt lat="45.23408" lon="5.98772">
        <ele>1219</ele>
        <time>2011-05-07T10:16:26.0250Z</time>
      </trkpt>
      <trkpt lat="45.2337" lon="5.98802">
        <ele>1222</ele>
        <time>2011-05-07T10:16:49.0250Z</time>
      </trkpt>
      <trkpt lat="45.23328" lon="5.98833">
        <ele>1225</ele>
        <time>2011-05-07T10:17:13.0250Z</time>
      </trkpt>
      <trkpt lat="45.23288" lon="5.98865">
        <ele>1230</ele>
        <time>2011-05-07T10:17:39.0260Z</time>
      </trkpt>
      <trkpt lat="45.23332" lon="5.98887">
        <ele>1244</ele>
        <time>2011-05-07T10:26:39.0280Z</time>
      </trkpt>
      <trkpt lat="45.23378" lon="5.98882">
        <ele>1249</ele>
        <time>2011-05-07T10:27:08.0280Z</time>
      </trkpt>
      <trkpt lat="45.23422" lon="5.98867">
        <ele>1253</ele>
        <time>2011-05-07T10:27:34.0280Z</time>
      </trkpt>
      <trkpt lat="45.23467" lon="5.98853">
        <ele>1272</ele>
        <time>2011-05-07T10:28:03.0270Z</time>
      </trkpt>
      <trkpt lat="45.23512" lon="5.98843">
        <ele>1283</ele>
        <time>2011-05-07T10:28:30.0280Z</time>
      </trkpt>
      <trkpt lat="45.23548" lon="5.98802">
        <ele>1284</ele>
        <time>2011-05-07T10:28:57.0280Z</time>
      </trkpt>
      <trkpt lat="45.2359" lon="5.98782">
        <ele>1289</ele>
        <time>2011-05-07T10:29:23.0280Z</time>
      </trkpt>
      <trkpt lat="45.23637" lon="5.98773">
        <ele>1300</ele>
        <time>2011-05-07T10:29:48.0270Z</time>
      </trkpt>
      <trkpt lat="45.23682" lon="5.9877">
        <ele>1311</ele>
        <time>2011-05-07T10:30:19.0280Z</time>
      </trkpt>
      <trkpt lat="45.23727" lon="5.98775">
        <ele>1316</ele>
        <time>2011-05-07T10:30:46.0280Z</time>
      </trkpt>
      <trkpt lat="45.23773" lon="5.98768">
        <ele>1318</ele>
        <time>2011-05-07T10:31:13.0280Z</time>
      </trkpt>
      <trkpt lat="45.23818" lon="5.98765">
        <ele>1324</ele>
        <time>2011-05-07T10:31:41.0280Z</time>
      </trkpt>
      <trkpt lat="45.23865" lon="5.98772">
        <ele>1329</ele>
        <time>2011-05-07T10:32:07.0280Z</time>
      </trkpt>
      <trkpt lat="45.23907" lon="5.98798">
        <ele>1327</ele>
        <time>2011-05-07T10:32:35.0280Z</time>
      </trkpt>
      <trkpt lat="45.2395" lon="5.98818">
        <ele>1328</ele>
        <time>2011-05-07T10:33:02.0290Z</time>
      </trkpt>
      <trkpt lat="45.23997" lon="5.98808">
        <ele>1329</ele>
        <time>2011-05-07T10:33:27.0290Z</time>
      </trkpt>
      <trkpt lat="45.2404" lon="5.98787">
        <ele>1328</ele>
        <time>2011-05-07T10:33:51.0290Z</time>
      </trkpt>
      <trkpt lat="45.24087" lon="5.98787">
        <ele>1328</ele>
        <time>2011-05-07T10:34:11.0280Z</time>
      </trkpt>
      <trkpt lat="45.24133" lon="5.98788">
        <ele>1337</ele>
        <time>2011-05-07T10:34:33.0290Z</time>
      </trkpt>
      <trkpt lat="45.2418" lon="5.98777">
        <ele>1342</ele>
        <time>2011-05-07T10:34:52.0290Z</time>
      </trkpt>
      <trkpt lat="45.24222" lon="5.98742">
        <ele>1343</ele>
        <time>2011-05-07T10:35:09.0290Z</time>
      </trkpt>
      <trkpt lat="45.24263" lon="5.9871">
        <ele>1352</ele>
        <time>2011-05-07T10:35:27.0290Z</time>
      </trkpt>
      <trkpt lat="45.24302" lon="5.98675">
        <ele>1348</ele>
        <time>2011-05-07T10:35:46.0290Z</time>
      </trkpt>
      <trkpt lat="45.24348" lon="5.98668">
        <ele>1349</ele>
        <time>2011-05-07T10:36:09.0290Z</time>
      </trkpt>
      <trkpt lat="45.24393" lon="5.98662">
        <ele>1349</ele>
        <time>2011-05-07T10:36:30.0290Z</time>
      </trkpt>
      <trkpt lat="45.24438" lon="5.98645">
        <ele>1342</ele>
        <time>2011-05-07T10:36:49.0290Z</time>
      </trkpt>
      <trkpt lat="45.24482" lon="5.98627">
        <ele>1340</ele>
        <time>2011-05-07T10:37:07.0300Z</time>
      </trkpt>
      <trkpt lat="45.24527" lon="5.98603">
        <ele>1340</ele>
        <time>2011-05-07T10:37:29.0290Z</time>
      </trkpt>
      <trkpt lat="45.24572" lon="5.98608">
        <ele>1346</ele>
        <time>2011-05-07T10:37:50.0290Z</time>
      </trkpt>
      <trkpt lat="45.24612" lon="5.98642">
        <ele>1343</ele>
        <time>2011-05-07T10:38:07.0300Z</time>
      </trkpt>
      <trkpt lat="45.24648" lon="5.98685">
        <ele>1344</ele>
        <time>2011-05-07T10:39:19.0290Z</time>
      </trkpt>
      <trkpt lat="45.24675" lon="5.98742">
        <ele>1342</ele>
        <time>2011-05-07T10:39:32.0300Z</time>
      </trkpt>
      <trkpt lat="45.24683" lon="5.98805">
        <ele>1344</ele>
        <time>2011-05-07T10:39:45.0290Z</time>
      </trkpt>
      <trkpt lat="45.24672" lon="5.98868">
        <ele>1344</ele>
        <time>2011-05-07T10:39:58.0290Z</time>
      </trkpt>
      <trkpt lat="45.2466" lon="5.98933">
        <ele>1351</ele>
        <time>2011-05-07T10:40:18.0300Z</time>
      </trkpt>
      <trkpt lat="45.24643" lon="5.98995">
        <ele>1350</ele>
        <time>2011-05-07T10:40:37.0300Z</time>
      </trkpt>
      <trkpt lat="45.24625" lon="5.99057">
        <ele>1358</ele>
        <time>2011-05-07T10:40:55.0300Z</time>
      </trkpt>
      <trkpt lat="45.24605" lon="5.99115">
        <ele>1361</ele>
        <time>2011-05-07T10:41:12.0300Z</time>
      </trkpt>
      <trkpt lat="45.24582" lon="5.99175">
        <ele>1364</ele>
        <time>2011-05-07T10:41:28.0300Z</time>
      </trkpt>
      <trkpt lat="45.2456" lon="5.99232">
        <ele>1365</ele>
        <time>2011-05-07T10:41:42.0300Z</time>
      </trkpt>
      <trkpt lat="45.24543" lon="5.99293">
        <ele>1368</ele>
        <time>2011-05-07T10:41:57.0300Z</time>
      </trkpt>
      <trkpt lat="45.24528" lon="5.99358">
        <ele>1367</ele>
        <time>2011-05-07T10:42:12.0310Z</time>
      </trkpt>
      <trkpt lat="45.24537" lon="5.99422">
        <ele>1370</ele>
        <time>2011-05-07T10:42:29.0300Z</time>
      </trkpt>
      <trkpt lat="45.24582" lon="5.99437">
        <ele>1370</ele>
        <time>2011-05-07T10:42:46.0300Z</time>
      </trkpt>
      <trkpt lat="45.24628" lon="5.99437">
        <ele>1366</ele>
        <time>2011-05-07T10:43:01.0290Z</time>
      </trkpt>
      <trkpt lat="45.24672" lon="5.99413">
        <ele>1367</ele>
        <time>2011-05-07T10:43:15.0290Z</time>
      </trkpt>
      <trkpt lat="45.24717" lon="5.99398">
        <ele>1352</ele>
        <time>2011-05-07T10:43:28.0300Z</time>
      </trkpt>
      <trkpt lat="45.2476" lon="5.99387">
        <ele>1354</ele>
        <time>2011-05-07T10:43:40.0300Z</time>
      </trkpt>
      <trkpt lat="45.24808" lon="5.99383">
        <ele>1357</ele>
        <time>2011-05-07T10:43:52.0300Z</time>
      </trkpt>
      <trkpt lat="45.24853" lon="5.99388">
        <ele>1356</ele>
        <time>2011-05-07T10:44:05.0300Z</time>
      </trkpt>
      <trkpt lat="45.24902" lon="5.99385">
        <ele>1356</ele>
        <time>2011-05-07T10:44:18.0310Z</time>
      </trkpt>
      <trkpt lat="45.24942" lon="5.99358">
        <ele>1356</ele>
        <time>2011-05-07T10:44:28.0300Z</time>
      </trkpt>
      <trkpt lat="45.24988" lon="5.99333">
        <ele>1355</ele>
        <time>2011-05-07T10:44:36.0300Z</time>
      </trkpt>
      <trkpt lat="45.25033" lon="5.99332">
        <ele>1353</ele>
        <time>2011-05-07T10:44:46.0310Z</time>
      </trkpt>
      <trkpt lat="45.25078" lon="5.99298">
        <ele>1357</ele>
        <time>2011-05-07T10:49:47.0300Z</time>
      </trkpt>
      <trkpt lat="45.2512" lon="5.9926">
        <ele>1356</ele>
        <time>2011-05-07T10:49:55.0310Z</time>
      </trkpt>
      <trkpt lat="45.25162" lon="5.99228">
        <ele>1354</ele>
        <time>2011-05-07T10:50:02.0300Z</time>
      </trkpt>
      <trkpt lat="45.25207" lon="5.99197">
        <ele>1353</ele>
        <time>2011-05-07T10:50:09.0300Z</time>
      </trkpt>
      <trkpt lat="45.25252" lon="5.99193">
        <ele>1351</ele>
        <time>2011-05-07T10:50:16.0310Z</time>
      </trkpt>
      <trkpt lat="45.25295" lon="5.99218">
        <ele>1350</ele>
        <time>2011-05-07T10:50:25.0310Z</time>
      </trkpt>
      <trkpt lat="45.25338" lon="5.99247">
        <ele>1353</ele>
        <time>2011-05-07T10:50:34.0320Z</time>
      </trkpt>
      <trkpt lat="45.25383" lon="5.99277">
        <ele>1358</ele>
        <time>2011-05-07T10:50:43.0300Z</time>
      </trkpt>
      <trkpt lat="45.25425" lon="5.99298">
        <ele>1360</ele>
        <time>2011-05-07T10:50:53.0300Z</time>
      </trkpt>
      <trkpt lat="45.25472" lon="5.9929">
        <ele>1358</ele>
        <time>2011-05-07T10:51:08.0310Z</time>
      </trkpt>
      <trkpt lat="45.25497" lon="5.99343">
        <ele>1352</ele>
        <time>2011-05-07T10:51:36.0290Z</time>
      </trkpt>
      <trkpt lat="45.25542" lon="5.99338">
        <ele>1354</ele>
        <time>2011-05-07T10:52:05.0300Z</time>
      </trkpt>
      <trkpt lat="45.25578" lon="5.99377">
        <ele>1350</ele>
        <time>2011-05-07T10:52:18.0290Z</time>
      </trkpt>
      <trkpt lat="45.25603" lon="5.99435">
        <ele>1343</ele>
        <time>2011-05-07T10:52:25.0310Z</time>
      </trkpt>
      <trkpt lat="45.25623" lon="5.99502">
        <ele>1339</ele>
        <time>2011-05-07T10:52:31.0300Z</time>
      </trkpt>
      <trkpt lat="45.2564" lon="5.99562">
        <ele>1338</ele>
        <time>2011-05-07T10:52:37.0310Z</time>
      </trkpt>
      <trkpt lat="45.25673" lon="5.99615">
        <ele>1334</ele>
        <time>2011-05-07T10:52:46.0310Z</time>
      </trkpt>
      <trkpt lat="45.25693" lon="5.99675">
        <ele>1330</ele>
        <time>2011-05-07T10:52:53.0310Z</time>
      </trkpt>
      <trkpt lat="45.25705" lon="5.99745">
        <ele>1331</ele>
        <time>2011-05-07T10:53:02.0300Z</time>
      </trkpt>
      <trkpt lat="45.25723" lon="5.99802">
        <ele>1333</ele>
        <time>2011-05-07T10:53:08.0300Z</time>
      </trkpt>
      <trkpt lat="45.2575" lon="5.99867">
        <ele>1330</ele>
        <time>2011-05-07T10:53:14.0310Z</time>
      </trkpt>
      <trkpt lat="45.25785" lon="5.99912">
        <ele>1329</ele>
        <time>2011-05-07T10:53:21.0310Z</time>
      </trkpt>
      <trkpt lat="45.25773" lon="5.99973">
        <ele>1328</ele>
        <time>2011-05-07T10:53:42.0310Z</time>
      </trkpt>
      <trkpt lat="45.25752" lon="6.00037">
        <ele>1327</ele>
        <time>2011-05-07T10:53:55.0300Z</time>
      </trkpt>
      <trkpt lat="45.2575" lon="6.00108">
        <ele>1325</ele>
        <time>2011-05-07T10:54:03.0310Z</time>
      </trkpt>
      <trkpt lat="45.25747" lon="6.00172">
        <ele>1325</ele>
        <time>2011-05-07T10:54:10.0310Z</time>
      </trkpt>
      <trkpt lat="45.25727" lon="6.00232">
        <ele>1325</ele>
        <time>2011-05-07T10:54:17.0310Z</time>
      </trkpt>
      <trkpt lat="45.25708" lon="6.0029">
        <ele>1324</ele>
        <time>2011-05-07T10:54:23.0300Z</time>
      </trkpt>
      <trkpt lat="45.25692" lon="6.00357">
        <ele>1322</ele>
        <time>2011-05-07T10:54:29.0310Z</time>
      </trkpt>
      <trkpt lat="45.25672" lon="6.00417">
        <ele>1322</ele>
        <time>2011-05-07T10:54:35.0300Z</time>
      </trkpt>
      <trkpt lat="45.25645" lon="6.00478">
        <ele>1322</ele>
        <time>2011-05-07T10:54:42.0300Z</time>
      </trkpt>
      <trkpt lat="45.25627" lon="6.00542">
        <ele>1322</ele>
        <time>2011-05-07T10:54:49.0320Z</time>
      </trkpt>
      <trkpt lat="45.25613" lon="6.00608">
        <ele>1291</ele>
        <time>2011-05-07T10:54:55.0310Z</time>
      </trkpt>
      <trkpt lat="45.25617" lon="6.00673">
        <ele>1288</ele>
        <time>2011-05-07T10:55:02.0830Z</time>
      </trkpt>
      <trkpt lat="45.2568" lon="6.00698">
        <ele>1288</ele>
        <time>2011-05-07T10:55:19.0320Z</time>
      </trkpt>
      <trkpt lat="45.25725" lon="6.00675">
        <ele>1286</ele>
        <time>2011-05-07T10:55:34.0310Z</time>
      </trkpt>
      <trkpt lat="45.2577" lon="6.0065">
        <ele>1283</ele>
        <time>2011-05-07T10:55:45.0320Z</time>
      </trkpt>
      <trkpt lat="45.25817" lon="6.00635">
        <ele>1283</ele>
        <time>2011-05-07T10:55:54.0320Z</time>
      </trkpt>
      <trkpt lat="45.2586" lon="6.00605">
        <ele>1282</ele>
        <time>2011-05-07T10:56:01.0310Z</time>
      </trkpt>
      <trkpt lat="45.25905" lon="6.0057">
        <ele>1279</ele>
        <time>2011-05-07T10:56:08.0320Z</time>
      </trkpt>
      <trkpt lat="45.25948" lon="6.00537">
        <ele>1284</ele>
        <time>2011-05-07T10:56:16.0330Z</time>
      </trkpt>
      <trkpt lat="45.25992" lon="6.00523">
        <ele>1285</ele>
        <time>2011-05-07T10:56:28.0310Z</time>
      </trkpt>
      <trkpt lat="45.26027" lon="6.00477">
        <ele>1291</ele>
        <time>2011-05-07T10:59:17.0320Z</time>
      </trkpt>
      <trkpt lat="45.26063" lon="6.00423">
        <ele>1286</ele>
        <time>2011-05-07T10:59:26.0330Z</time>
      </trkpt>
      <trkpt lat="45.26092" lon="6.00365">
        <ele>1285</ele>
        <time>2011-05-07T10:59:33.0310Z</time>
      </trkpt>
      <trkpt lat="45.26138" lon="6.00333">
        <ele>1274</ele>
        <time>2011-05-07T10:59:42.0310Z</time>
      </trkpt>
      <trkpt lat="45.26178" lon="6.0029">
        <ele>1271</ele>
        <time>2011-05-07T10:59:50.0310Z</time>
      </trkpt>
      <trkpt lat="45.262" lon="6.0023">
        <ele>1257</ele>
        <time>2011-05-07T10:59:57.0940Z</time>
      </trkpt>
      <trkpt lat="45.26225" lon="6.00172">
        <ele>1252</ele>
        <time>2011-05-07T11:00:07.0320Z</time>
      </trkpt>
      <trkpt lat="45.26253" lon="6.0012">
        <ele>1248</ele>
        <time>2011-05-07T11:00:14.0860Z</time>
      </trkpt>
      <trkpt lat="45.26272" lon="6.00062">
        <ele>1247</ele>
        <time>2011-05-07T11:00:21.0320Z</time>
      </trkpt>
      <trkpt lat="45.26305" lon="6.00005">
        <ele>1234</ele>
        <time>2011-05-07T11:00:28.0320Z</time>
      </trkpt>
      <trkpt lat="45.26337" lon="5.9996">
        <ele>1226</ele>
        <time>2011-05-07T11:00:33.0330Z</time>
      </trkpt>
      <trkpt lat="45.26375" lon="5.99918">
        <ele>1211</ele>
        <time>2011-05-07T11:00:42.0330Z</time>
      </trkpt>
      <trkpt lat="45.26387" lon="5.99857">
        <ele>1200</ele>
        <time>2011-05-07T11:00:52.0330Z</time>
      </trkpt>
      <trkpt lat="45.26422" lon="5.99812">
        <ele>1195</ele>
        <time>2011-05-07T11:00:59.0330Z</time>
      </trkpt>
      <trkpt lat="45.26463" lon="5.9978">
        <ele>1190</ele>
        <time>2011-05-07T11:01:08.0320Z</time>
      </trkpt>
      <trkpt lat="45.265" lon="5.9974">
        <ele>1183</ele>
        <time>2011-05-07T11:01:21.0320Z</time>
      </trkpt>
      <trkpt lat="45.26542" lon="5.99712">
        <ele>1169</ele>
        <time>2011-05-07T11:02:18.0330Z</time>
      </trkpt>
      <trkpt lat="45.26585" lon="5.99685">
        <ele>1161</ele>
        <time>2011-05-07T11:03:06.0340Z</time>
      </trkpt>
      <trkpt lat="45.2662" lon="5.99633">
        <ele>1153</ele>
        <time>2011-05-07T11:03:15.0310Z</time>
      </trkpt>
      <trkpt lat="45.26662" lon="5.99592">
        <ele>1144</ele>
        <time>2011-05-07T11:03:23.0320Z</time>
      </trkpt>
      <trkpt lat="45.26693" lon="5.9954">
        <ele>1126</ele>
        <time>2011-05-07T11:03:32.0330Z</time>
      </trkpt>
      <trkpt lat="45.26723" lon="5.99483">
        <ele>1124</ele>
        <time>2011-05-07T11:03:40.0850Z</time>
      </trkpt>
      <trkpt lat="45.26732" lon="5.9942">
        <ele>1124</ele>
        <time>2011-05-07T11:03:48.0890Z</time>
      </trkpt>
      <trkpt lat="45.26772" lon="5.9939">
        <ele>1111</ele>
        <time>2011-05-07T11:04:15.0320Z</time>
      </trkpt>
      <trkpt lat="45.26817" lon="5.99377">
        <ele>1111</ele>
        <time>2011-05-07T11:04:29.0320Z</time>
      </trkpt>
      <trkpt lat="45.26982" lon="5.99125">
        <ele>1111</ele>
        <time>2011-05-07T11:05:11.0320Z</time>
      </trkpt>
      <trkpt lat="45.27025" lon="5.9907">
        <ele>1111</ele>
        <time>2011-05-07T11:05:22.0330Z</time>
      </trkpt>
      <trkpt lat="45.27007" lon="5.99012">
        <ele>1111</ele>
        <time>2011-05-07T11:05:24.0330Z</time>
      </trkpt>
      <trkpt lat="45.27018" lon="5.9895">
        <ele>1111</ele>
        <time>2011-05-07T11:05:33.0330Z</time>
      </trkpt>
      <trkpt lat="45.27067" lon="5.98875">
        <ele>1111</ele>
        <time>2011-05-07T11:05:51.0330Z</time>
      </trkpt>
      <trkpt lat="45.27112" lon="5.98882">
        <ele>1110</ele>
        <time>2011-05-07T11:05:58.0330Z</time>
      </trkpt>
      <trkpt lat="45.27142" lon="5.98827">
        <ele>1110</ele>
        <time>2011-05-07T11:06:08.0330Z</time>
      </trkpt>
      <trkpt lat="45.27175" lon="5.98785">
        <ele>1110</ele>
        <time>2011-05-07T11:06:19.0320Z</time>
      </trkpt>
      <trkpt lat="45.27223" lon="5.9878">
        <ele>992</ele>
        <time>2011-05-07T11:07:34.0320Z</time>
      </trkpt>
      <trkpt lat="45.27303" lon="5.98567">
        <ele>992</ele>
        <time>2011-05-07T11:07:56.0340Z</time>
      </trkpt>
      <trkpt lat="45.27337" lon="5.98617">
        <ele>952</ele>
        <time>2011-05-07T11:07:59.0340Z</time>
      </trkpt>
      <trkpt lat="45.27373" lon="5.9858">
        <ele>931</ele>
        <time>2011-05-07T11:08:14.0330Z</time>
      </trkpt>
      <trkpt lat="45.27335" lon="5.9861">
        <ele>940</ele>
        <time>2011-05-07T11:08:34.0330Z</time>
      </trkpt>
      <trkpt lat="45.27298" lon="5.98568">
        <ele>937</ele>
        <time>2011-05-07T11:08:52.0330Z</time>
      </trkpt>
      <trkpt lat="45.27268" lon="5.98518">
        <ele>933</ele>
        <time>2011-05-07T11:08:58.0320Z</time>
      </trkpt>
      <trkpt lat="45.2722" lon="5.98502">
        <ele>930</ele>
        <time>2011-05-07T11:09:05.0320Z</time>
      </trkpt>
      <trkpt lat="45.2718" lon="5.98455">
        <ele>928</ele>
        <time>2011-05-07T11:09:11.0840Z</time>
      </trkpt>
      <trkpt lat="45.27138" lon="5.98413">
        <ele>925</ele>
        <time>2011-05-07T11:09:18.0330Z</time>
      </trkpt>
      <trkpt lat="45.27098" lon="5.98378">
        <ele>922</ele>
        <time>2011-05-07T11:09:43.0320Z</time>
      </trkpt>
      <trkpt lat="45.27053" lon="5.98357">
        <ele>922</ele>
        <time>2011-05-07T11:09:49.0890Z</time>
      </trkpt>
      <trkpt lat="45.27043" lon="5.98293">
        <ele>916</ele>
        <time>2011-05-07T11:10:03.0330Z</time>
      </trkpt>
      <trkpt lat="45.2706" lon="5.98235">
        <ele>906</ele>
        <time>2011-05-07T11:10:22.0320Z</time>
      </trkpt>
      <trkpt lat="45.27083" lon="5.98175">
        <ele>898</ele>
        <time>2011-05-07T11:10:37.0330Z</time>
      </trkpt>
      <trkpt lat="45.27118" lon="5.98128">
        <ele>893</ele>
        <time>2011-05-07T11:10:45.0330Z</time>
      </trkpt>
      <trkpt lat="45.27115" lon="5.98062">
        <ele>886</ele>
        <time>2011-05-07T11:10:59.0330Z</time>
      </trkpt>
      <trkpt lat="45.27115" lon="5.97985">
        <ele>876</ele>
        <time>2011-05-07T11:11:05.0870Z</time>
      </trkpt>
      <trkpt lat="45.27115" lon="5.9792">
        <ele>868</ele>
        <time>2011-05-07T11:11:11.0330Z</time>
      </trkpt>
      <trkpt lat="45.27147" lon="5.97862">
        <ele>866</ele>
        <time>2011-05-07T11:11:17.0940Z</time>
      </trkpt>
      <trkpt lat="45.27195" lon="5.97763">
        <ele>863</ele>
        <time>2011-05-07T11:11:28.0320Z</time>
      </trkpt>
      <trkpt lat="45.27208" lon="5.97695">
        <ele>856</ele>
        <time>2011-05-07T11:11:35.0330Z</time>
      </trkpt>
      <trkpt lat="45.27198" lon="5.97627">
        <ele>854</ele>
        <time>2011-05-07T11:11:42.0940Z</time>
      </trkpt>
      <trkpt lat="45.27183" lon="5.9756">
        <ele>854</ele>
        <time>2011-05-07T11:11:49.0330Z</time>
      </trkpt>
      <trkpt lat="45.27183" lon="5.97493">
        <ele>854</ele>
        <time>2011-05-07T11:11:53.0860Z</time>
      </trkpt>
      <trkpt lat="45.27172" lon="5.97308">
        <ele>854</ele>
        <time>2011-05-07T11:12:07.0330Z</time>
      </trkpt>
      <trkpt lat="45.27153" lon="5.97193">
        <ele>854</ele>
        <time>2011-05-07T11:12:16.0340Z</time>
      </trkpt>
      <trkpt lat="45.27152" lon="5.97118">
        <ele>848</ele>
        <time>2011-05-07T11:12:23.0330Z</time>
      </trkpt>
      <trkpt lat="45.2715" lon="5.9705">
        <ele>848</ele>
        <time>2011-05-07T11:12:28.0850Z</time>
      </trkpt>
      <trkpt lat="45.27137" lon="5.96983">
        <ele>848</ele>
        <time>2011-05-07T11:12:33.0320Z</time>
      </trkpt>
      <trkpt lat="45.27132" lon="5.96915">
        <ele>758</ele>
        <time>2011-05-07T11:12:38.0320Z</time>
      </trkpt>
      <trkpt lat="45.27145" lon="5.96853">
        <ele>758</ele>
        <time>2011-05-07T11:12:42.0880Z</time>
      </trkpt>
      <trkpt lat="45.27148" lon="5.96787">
        <ele>760</ele>
        <time>2011-05-07T11:12:48.0330Z</time>
      </trkpt>
      <trkpt lat="45.2715" lon="5.9672">
        <ele>754</ele>
        <time>2011-05-07T11:13:06.0320Z</time>
      </trkpt>
      <trkpt lat="45.27167" lon="5.96657">
        <ele>757</ele>
        <time>2011-05-07T11:13:25.0320Z</time>
      </trkpt>
      <trkpt lat="45.27178" lon="5.96597">
        <ele>756</ele>
        <time>2011-05-07T11:13:41.0320Z</time>
      </trkpt>
      <trkpt lat="45.27185" lon="5.96532">
        <ele>758</ele>
        <time>2011-05-07T11:13:55.0320Z</time>
      </trkpt>
      <trkpt lat="45.27187" lon="5.96468">
        <ele>753</ele>
        <time>2011-05-07T11:14:03.0330Z</time>
      </trkpt>
      <trkpt lat="45.27168" lon="5.96408">
        <ele>749</ele>
        <time>2011-05-07T11:14:17.0330Z</time>
      </trkpt>
      <trkpt lat="45.2714" lon="5.96358">
        <ele>750</ele>
        <time>2011-05-07T11:24:25.0370Z</time>
      </trkpt>
      <trkpt lat="45.27135" lon="5.96292">
        <ele>744</ele>
        <time>2011-05-07T11:24:32.0350Z</time>
      </trkpt>
      <trkpt lat="45.27147" lon="5.96225">
        <ele>738</ele>
        <time>2011-05-07T11:24:38.0360Z</time>
      </trkpt>
      <trkpt lat="45.2717" lon="5.9617">
        <ele>736</ele>
        <time>2011-05-07T11:24:43.0360Z</time>
      </trkpt>
      <trkpt lat="45.27192" lon="5.961">
        <ele>737</ele>
        <time>2011-05-07T11:24:55.0370Z</time>
      </trkpt>
      <trkpt lat="45.2716" lon="5.96043">
        <ele>735</ele>
        <time>2011-05-07T11:25:02.0370Z</time>
      </trkpt>
      <trkpt lat="45.27145" lon="5.9598">
        <ele>733</ele>
        <time>2011-05-07T11:25:09.0370Z</time>
      </trkpt>
      <trkpt lat="45.27173" lon="5.95928">
        <ele>732</ele>
        <time>2011-05-07T11:25:15.0360Z</time>
      </trkpt>
      <trkpt lat="45.27178" lon="5.95857">
        <ele>733</ele>
        <time>2011-05-07T11:25:23.0360Z</time>
      </trkpt>
      <trkpt lat="45.27165" lon="5.95787">
        <ele>732</ele>
        <time>2011-05-07T11:25:30.0360Z</time>
      </trkpt>
      <trkpt lat="45.27153" lon="5.95722">
        <ele>725</ele>
        <time>2011-05-07T11:26:02.0360Z</time>
      </trkpt>
      <trkpt lat="45.27137" lon="5.95655">
        <ele>725</ele>
        <time>2011-05-07T11:26:11.0350Z</time>
      </trkpt>
      <trkpt lat="45.2712" lon="5.95592">
        <ele>721</ele>
        <time>2011-05-07T11:26:17.0900Z</time>
      </trkpt>
      <trkpt lat="45.27108" lon="5.95523">
        <ele>716</ele>
        <time>2011-05-07T11:26:24.0370Z</time>
      </trkpt>
      <trkpt lat="45.27108" lon="5.95458">
        <ele>715</ele>
        <time>2011-05-07T11:26:29.0920Z</time>
      </trkpt>
      <trkpt lat="45.27093" lon="5.95395">
        <ele>707</ele>
        <time>2011-05-07T11:26:35.0930Z</time>
      </trkpt>
      <trkpt lat="45.27083" lon="5.95283">
        <ele>712</ele>
        <time>2011-05-07T11:26:48.0350Z</time>
      </trkpt>
      <trkpt lat="45.27092" lon="5.95212">
        <ele>712</ele>
        <time>2011-05-07T11:26:55.0360Z</time>
      </trkpt>
      <trkpt lat="45.27093" lon="5.95143">
        <ele>654</ele>
        <time>2011-05-07T11:27:01.0360Z</time>
      </trkpt>
      <trkpt lat="45.2709" lon="5.9508">
        <ele>654</ele>
        <time>2011-05-07T11:27:05.0900Z</time>
      </trkpt>
      <trkpt lat="45.27082" lon="5.94968">
        <ele>654</ele>
        <time>2011-05-07T11:27:13.0370Z</time>
      </trkpt>
      <trkpt lat="45.27088" lon="5.94893">
        <ele>654</ele>
        <time>2011-05-07T11:27:18.0370Z</time>
      </trkpt>
      <trkpt lat="45.27095" lon="5.94815">
        <ele>650</ele>
        <time>2011-05-07T11:27:23.0370Z</time>
      </trkpt>
      <trkpt lat="45.27102" lon="5.94743">
        <ele>637</ele>
        <time>2011-05-07T11:27:28.0360Z</time>
      </trkpt>
      <trkpt lat="45.27102" lon="5.9467">
        <ele>637</ele>
        <time>2011-05-07T11:27:33.0920Z</time>
      </trkpt>
      <trkpt lat="45.27103" lon="5.94603">
        <ele>637</ele>
        <time>2011-05-07T11:27:38.0890Z</time>
      </trkpt>
      <trkpt lat="45.27095" lon="5.94533">
        <ele>637</ele>
        <time>2011-05-07T11:27:44.0350Z</time>
      </trkpt>
      <trkpt lat="45.27088" lon="5.94468">
        <ele>625</ele>
        <time>2011-05-07T11:27:49.0350Z</time>
      </trkpt>
      <trkpt lat="45.27085" lon="5.94397">
        <ele>622</ele>
        <time>2011-05-07T11:27:54.0970Z</time>
      </trkpt>
      <trkpt lat="45.27088" lon="5.94332">
        <ele>613</ele>
        <time>2011-05-07T11:28:00.0370Z</time>
      </trkpt>
      <trkpt lat="45.27088" lon="5.94252">
        <ele>606</ele>
        <time>2011-05-07T11:28:07.0370Z</time>
      </trkpt>
      <trkpt lat="45.27103" lon="5.94185">
        <ele>586</ele>
        <time>2011-05-07T11:28:14.0360Z</time>
      </trkpt>
      <trkpt lat="45.27147" lon="5.94163">
        <ele>579</ele>
        <time>2011-05-07T11:28:32.0360Z</time>
      </trkpt>
      <trkpt lat="45.27193" lon="5.9415">
        <ele>581</ele>
        <time>2011-05-07T11:29:23.0350Z</time>
      </trkpt>
      <trkpt lat="45.27538" lon="5.94152">
        <ele>578</ele>
        <time>2011-05-07T11:30:12.0370Z</time>
      </trkpt>
      <trkpt lat="45.27565" lon="5.94217">
        <ele>564</ele>
        <time>2011-05-07T11:30:15.0360Z</time>
      </trkpt>
      <trkpt lat="45.27608" lon="5.94247">
        <ele>559</ele>
        <time>2011-05-07T11:30:20.0370Z</time>
      </trkpt>
      <trkpt lat="45.27645" lon="5.9429">
        <ele>555</ele>
        <time>2011-05-07T11:30:24.0970Z</time>
      </trkpt>
      <trkpt lat="45.27742" lon="5.94368">
        <ele>552</ele>
        <time>2011-05-07T11:30:42.0370Z</time>
      </trkpt>
      <trkpt lat="45.27787" lon="5.9437">
        <ele>517</ele>
        <time>2011-05-07T11:30:58.0880Z</time>
      </trkpt>
      <trkpt lat="45.27837" lon="5.94355">
        <ele>517</ele>
        <time>2011-05-07T11:31:14.0370Z</time>
      </trkpt>
      <trkpt lat="45.28017" lon="5.9437">
        <ele>517</ele>
        <time>2011-05-07T11:31:40.0370Z</time>
      </trkpt>
      <trkpt lat="45.28065" lon="5.94417">
        <ele>517</ele>
        <time>2011-05-07T11:31:42.0370Z</time>
      </trkpt>
      <trkpt lat="45.28103" lon="5.94452">
        <ele>449</ele>
        <time>2011-05-07T11:32:10.0370Z</time>
      </trkpt>
      <trkpt lat="45.28143" lon="5.94482">
        <ele>433</ele>
        <time>2011-05-07T11:32:40.0370Z</time>
      </trkpt>
      <trkpt lat="45.28188" lon="5.94485">
        <ele>429</ele>
        <time>2011-05-07T11:38:12.0380Z</time>
      </trkpt>
      <trkpt lat="45.28225" lon="5.94525">
        <ele>415</ele>
        <time>2011-05-07T11:44:20.0380Z</time>
      </trkpt>
      <trkpt lat="45.28275" lon="5.94445">
        <ele>413</ele>
        <time>2011-05-07T11:44:37.0390Z</time>
      </trkpt>
      <trkpt lat="45.28282" lon="5.94372">
        <ele>413</ele>
        <time>2011-05-07T11:44:43.0390Z</time>
      </trkpt>
      <trkpt lat="45.28298" lon="5.94307">
        <ele>400</ele>
        <time>2011-05-07T11:44:51.0390Z</time>
      </trkpt>
      <trkpt lat="45.28327" lon="5.94257">
        <ele>383</ele>
        <time>2011-05-07T11:45:05.0390Z</time>
      </trkpt>
      <trkpt lat="45.28353" lon="5.942">
        <ele>373</ele>
        <time>2011-05-07T11:45:32.0380Z</time>
      </trkpt>
      <trkpt lat="45.28382" lon="5.94147">
        <ele>361</ele>
        <time>2011-05-07T11:45:40.0370Z</time>
      </trkpt>
      <trkpt lat="45.28413" lon="5.9409">
        <ele>348</ele>
        <time>2011-05-07T11:45:47.0950Z</time>
      </trkpt>
      <trkpt lat="45.2846" lon="5.94082">
        <ele>351</ele>
        <time>2011-05-07T11:46:00.0880Z</time>
      </trkpt>
      <trkpt lat="45.2853" lon="5.94088">
        <ele>351</ele>
        <time>2011-05-07T11:46:16.0380Z</time>
      </trkpt>
      <trkpt lat="45.28567" lon="5.9403">
        <ele>345</ele>
        <time>2011-05-07T11:46:30.0920Z</time>
      </trkpt>
      <trkpt lat="45.28588" lon="5.93972">
        <ele>344</ele>
        <time>2011-05-07T11:46:35.0400Z</time>
      </trkpt>
      <trkpt lat="45.28605" lon="5.93905">
        <ele>334</ele>
        <time>2011-05-07T11:46:41.0400Z</time>
      </trkpt>
      <trkpt lat="45.28612" lon="5.93842">
        <ele>253</ele>
        <time>2011-05-07T11:51:04.0400Z</time>
      </trkpt>
      <trkpt lat="45.28642" lon="5.93782">
        <ele>251</ele>
        <time>2011-05-07T11:52:24.0390Z</time>
      </trkpt>
      <trkpt lat="45.28668" lon="5.9373">
        <ele>249</ele>
        <time>2011-05-07T11:52:40.0400Z</time>
      </trkpt>
      <trkpt lat="45.28632" lon="5.93682">
        <ele>247</ele>
        <time>2011-05-07T11:52:48.0410Z</time>
      </trkpt>
      <trkpt lat="45.2769" lon="5.91852">
        <ele>234</ele>
        <time>2011-05-07T11:54:48.0400Z</time>
      </trkpt>
      <trkpt lat="45.27637" lon="5.91808">
        <ele>240</ele>
        <time>2011-05-07T11:54:51.0400Z</time>
      </trkpt>
      <trkpt lat="45.27597" lon="5.91777">
        <ele>241</ele>
        <time>2011-05-07T11:54:53.0400Z</time>
      </trkpt>
      <trkpt lat="45.2754" lon="5.91728">
        <ele>243</ele>
        <time>2011-05-07T11:54:56.0400Z</time>
      </trkpt>
      <trkpt lat="45.275" lon="5.91695">
        <ele>243</ele>
        <time>2011-05-07T11:54:58.0400Z</time>
      </trkpt>
      <trkpt lat="45.27443" lon="5.91647">
        <ele>241</ele>
        <time>2011-05-07T11:55:01.0390Z</time>
      </trkpt>
      <trkpt lat="45.27385" lon="5.91598">
        <ele>240</ele>
        <time>2011-05-07T11:55:04.0390Z</time>
      </trkpt>
      <trkpt lat="45.27328" lon="5.9155">
        <ele>239</ele>
        <time>2011-05-07T11:55:07.0400Z</time>
      </trkpt>
      <trkpt lat="45.2727" lon="5.91502">
        <ele>238</ele>
        <time>2011-05-07T11:55:10.0400Z</time>
      </trkpt>
      <trkpt lat="45.27212" lon="5.91455">
        <ele>236</ele>
        <time>2011-05-07T11:55:13.0390Z</time>
      </trkpt>
      <trkpt lat="45.27155" lon="5.91407">
        <ele>235</ele>
        <time>2011-05-07T11:55:16.0390Z</time>
      </trkpt>
      <trkpt lat="45.27117" lon="5.91375">
        <ele>234</ele>
        <time>2011-05-07T11:55:18.0390Z</time>
      </trkpt>
      <trkpt lat="45.27058" lon="5.91327">
        <ele>234</ele>
        <time>2011-05-07T11:55:21.0400Z</time>
      </trkpt>
      <trkpt lat="45.27" lon="5.91278">
        <ele>235</ele>
        <time>2011-05-07T11:55:24.0400Z</time>
      </trkpt>
      <trkpt lat="45.26943" lon="5.9123">
        <ele>235</ele>
        <time>2011-05-07T11:55:27.0390Z</time>
      </trkpt>
      <trkpt lat="45.26887" lon="5.91182">
        <ele>235</ele>
        <time>2011-05-07T11:55:30.0390Z</time>
      </trkpt>
      <trkpt lat="45.26832" lon="5.91133">
        <ele>234</ele>
        <time>2011-05-07T11:55:33.0400Z</time>
      </trkpt>
      <trkpt lat="45.26783" lon="5.91078">
        <ele>235</ele>
        <time>2011-05-07T11:55:36.0390Z</time>
      </trkpt>
      <trkpt lat="45.26743" lon="5.91013">
        <ele>235</ele>
        <time>2011-05-07T11:55:39.0390Z</time>
      </trkpt>
      <trkpt lat="45.26713" lon="5.9094">
        <ele>234</ele>
        <time>2011-05-07T11:55:42.0400Z</time>
      </trkpt>
      <trkpt lat="45.26692" lon="5.9086">
        <ele>234</ele>
        <time>2011-05-07T11:55:45.0400Z</time>
      </trkpt>
      <trkpt lat="45.26678" lon="5.90777">
        <ele>233</ele>
        <time>2011-05-07T11:55:48.0390Z</time>
      </trkpt>
      <trkpt lat="45.26675" lon="5.90688">
        <ele>234</ele>
        <time>2011-05-07T11:55:51.0390Z</time>
      </trkpt>
      <trkpt lat="45.26675" lon="5.906">
        <ele>234</ele>
        <time>2011-05-07T11:55:54.0400Z</time>
      </trkpt>
      <trkpt lat="45.26675" lon="5.90512">
        <ele>234</ele>
        <time>2011-05-07T11:55:57.0400Z</time>
      </trkpt>
      <trkpt lat="45.26665" lon="5.90425">
        <ele>234</ele>
        <time>2011-05-07T11:56:00.0390Z</time>
      </trkpt>
      <trkpt lat="45.26642" lon="5.90342">
        <ele>234</ele>
        <time>2011-05-07T11:56:03.0400Z</time>
      </trkpt>
      <trkpt lat="45.26605" lon="5.9027">
        <ele>234</ele>
        <time>2011-05-07T11:56:06.0400Z</time>
      </trkpt>
    </trkseg>
  </trk>
</gpx>